sensor_id;sensor_type;location;lat;lon;timestamp;temperature;humidity
8178;DHT22;4130;48.740;9.132;2023-07-28T00:00:38;15.30;99.90
8178;DHT22;4130;48.740;9.132;2023-07-28T00:03:05;15.20;99.90
8178;DHT22;4130;48.740;9.132;2023-07-28T00:05:32;15.20;99.90
8178;DHT22;4130;48.740;9.132;2023-07-28T00:07:58;15.10;99.90
8178;DHT22;4130;48.740;9.132;2023-07-28T00:10:26;15.10;99.90
8178;DHT22;4130;48.740;9.132;2023-07-28T00:12:53;15.10;99.90
8178;DHT22;4130;48.740;9.132;2023-07-28T00:15:20;15.10;99.90
8178;DHT22;4130;48.740;9.132;2023-07-28T00:17:47;15.10;99.90
8178;DHT22;4130;48.740;9.132;2023-07-28T00:20:14;15.00;99.90
8178;DHT22;4130;48.740;9.132;2023-07-28T00:22:40;15.00;99.90
8178;DHT22;4130;48.740;9.132;2023-07-28T00:25:08;14.90;99.90
8178;DHT22;4130;48.740;9.132;2023-07-28T00:27:36;14.90;99.90
8178;DHT22;4130;48.740;9.132;2023-07-28T00:30:03;14.90;99.90
8178;DHT22;4130;48.740;9.132;2023-07-28T00:32:30;14.80;99.90
8178;DHT22;4130;48.740;9.132;2023-07-28T00:34:57;14.80;99.90
8178;DHT22;4130;48.740;9.132;2023-07-28T00:37:24;14.70;99.90
8178;DHT22;4130;48.740;9.132;2023-07-28T00:39:50;14.70;99.90
8178;DHT22;4130;48.740;9.132;2023-07-28T00:42:17;14.70;99.90
8178;DHT22;4130;48.740;9.132;2023-07-28T00:44:45;14.70;99.90
8178;DHT22;4130;48.740;9.132;2023-07-28T00:47:12;14.60;99.90
8178;DHT22;4130;48.740;9.132;2023-07-28T00:49:40;14.60;99.90
8178;DHT22;4130;48.740;9.132;2023-07-28T00:52:08;14.60;99.90
8178;DHT22;4130;48.740;9.132;2023-07-28T00:54:35;14.60;99.90
8178;DHT22;4130;48.740;9.132;2023-07-28T00:57:03;14.60;99.90
8178;DHT22;4130;48.740;9.132;2023-07-28T00:59:30;14.60;99.90
8178;DHT22;4130;48.740;9.132;2023-07-28T01:01:59;14.60;99.90
8178;DHT22;4130;48.740;9.132;2023-07-28T01:04:25;14.50;99.90
8178;DHT22;4130;48.740;9.132;2023-07-28T01:06:57;14.60;99.90
8178;DHT22;4130;48.740;9.132;2023-07-28T01:09:29;14.50;99.90
8178;DHT22;4130;48.740;9.132;2023-07-28T01:11:58;14.40;99.90
8178;DHT22;4130;48.740;9.132;2023-07-28T01:14:26;14.40;99.90
8178;DHT22;4130;48.740;9.132;2023-07-28T01:16:52;14.30;99.90
8178;DHT22;4130;48.740;9.132;2023-07-28T01:19:21;14.30;99.90
8178;DHT22;4130;48.740;9.132;2023-07-28T01:22:13;14.30;99.90
8178;DHT22;4130;48.740;9.132;2023-07-28T01:24:51;14.30;99.90
8178;DHT22;4130;48.740;9.132;2023-07-28T01:27:23;14.30;99.90
8178;DHT22;4130;48.740;9.132;2023-07-28T01:29:50;14.30;99.90
8178;DHT22;4130;48.740;9.132;2023-07-28T01:32:17;14.30;99.90
8178;DHT22;4130;48.740;9.132;2023-07-28T01:34:44;14.30;99.90
8178;DHT22;4130;48.740;9.132;2023-07-28T01:37:11;14.20;99.90
8178;DHT22;4130;48.740;9.132;2023-07-28T01:39:37;14.20;99.90
8178;DHT22;4130;48.740;9.132;2023-07-28T01:42:05;14.20;99.90
8178;DHT22;4130;48.740;9.132;2023-07-28T01:44:33;14.20;99.90
8178;DHT22;4130;48.740;9.132;2023-07-28T01:46:59;14.20;99.90
8178;DHT22;4130;48.740;9.132;2023-07-28T01:49:26;14.30;99.90
8178;DHT22;4130;48.740;9.132;2023-07-28T01:51:53;14.40;99.90
8178;DHT22;4130;48.740;9.132;2023-07-28T01:54:19;14.50;99.90
8178;DHT22;4130;48.740;9.132;2023-07-28T01:56:46;14.60;99.90
8178;DHT22;4130;48.740;9.132;2023-07-28T01:59:13;14.70;99.90
8178;DHT22;4130;48.740;9.132;2023-07-28T02:01:41;14.80;99.90
8178;DHT22;4130;48.740;9.132;2023-07-28T02:04:07;14.80;99.90
8178;DHT22;4130;48.740;9.132;2023-07-28T02:06:34;14.90;99.90
8178;DHT22;4130;48.740;9.132;2023-07-28T02:09:01;15.00;99.90
8178;DHT22;4130;48.740;9.132;2023-07-28T02:11:28;15.10;99.90
8178;DHT22;4130;48.740;9.132;2023-07-28T02:13:54;15.10;99.90
8178;DHT22;4130;48.740;9.132;2023-07-28T02:16:21;15.10;99.90
8178;DHT22;4130;48.740;9.132;2023-07-28T02:18:49;15.10;99.90
8178;DHT22;4130;48.740;9.132;2023-07-28T02:21:16;15.10;99.90
8178;DHT22;4130;48.740;9.132;2023-07-28T02:23:42;15.00;99.90
8178;DHT22;4130;48.740;9.132;2023-07-28T02:26:09;15.00;99.90
8178;DHT22;4130;48.740;9.132;2023-07-28T02:28:36;14.90;99.90
8178;DHT22;4130;48.740;9.132;2023-07-28T02:31:03;14.90;99.90
8178;DHT22;4130;48.740;9.132;2023-07-28T02:33:29;14.90;99.90
8178;DHT22;4130;48.740;9.132;2023-07-28T02:36:00;14.90;99.90
8178;DHT22;4130;48.740;9.132;2023-07-28T02:38:27;15.00;99.90
8178;DHT22;4130;48.740;9.132;2023-07-28T02:40:54;14.80;99.90
8178;DHT22;4130;48.740;9.132;2023-07-28T02:43:20;14.80;99.90
8178;DHT22;4130;48.740;9.132;2023-07-28T02:45:48;14.80;99.90
8178;DHT22;4130;48.740;9.132;2023-07-28T02:48:19;14.80;99.90
8178;DHT22;4130;48.740;9.132;2023-07-28T02:50:46;14.70;99.90
8178;DHT22;4130;48.740;9.132;2023-07-28T02:53:15;14.80;99.90
8178;DHT22;4130;48.740;9.132;2023-07-28T02:55:42;14.80;99.90
8178;DHT22;4130;48.740;9.132;2023-07-28T02:58:09;14.80;99.90
8178;DHT22;4130;48.740;9.132;2023-07-28T03:00:37;14.80;99.90
8178;DHT22;4130;48.740;9.132;2023-07-28T03:03:03;14.80;99.90
8178;DHT22;4130;48.740;9.132;2023-07-28T03:05:31;14.80;99.90
8178;DHT22;4130;48.740;9.132;2023-07-28T03:07:58;14.90;99.90
8178;DHT22;4130;48.740;9.132;2023-07-28T03:10:26;14.90;99.90
8178;DHT22;4130;48.740;9.132;2023-07-28T03:12:53;14.90;99.90
8178;DHT22;4130;48.740;9.132;2023-07-28T03:15:20;15.00;99.90
8178;DHT22;4130;48.740;9.132;2023-07-28T03:17:48;15.00;99.90
8178;DHT22;4130;48.740;9.132;2023-07-28T03:20:15;15.00;99.90
8178;DHT22;4130;48.740;9.132;2023-07-28T03:22:41;15.10;99.90
8178;DHT22;4130;48.740;9.132;2023-07-28T03:25:08;15.10;99.90
8178;DHT22;4130;48.740;9.132;2023-07-28T03:27:36;15.10;99.90
8178;DHT22;4130;48.740;9.132;2023-07-28T03:30:04;15.30;99.90
8178;DHT22;4130;48.740;9.132;2023-07-28T03:32:34;15.20;99.90
8178;DHT22;4130;48.740;9.132;2023-07-28T03:35:01;15.20;99.90
8178;DHT22;4130;48.740;9.132;2023-07-28T03:37:30;15.20;99.90
8178;DHT22;4130;48.740;9.132;2023-07-28T03:39:57;15.20;99.90
8178;DHT22;4130;48.740;9.132;2023-07-28T03:42:24;15.30;99.90
8178;DHT22;4130;48.740;9.132;2023-07-28T03:44:52;15.30;99.90
8178;DHT22;4130;48.740;9.132;2023-07-28T03:47:19;15.30;99.90
8178;DHT22;4130;48.740;9.132;2023-07-28T03:49:45;15.30;99.90
8178;DHT22;4130;48.740;9.132;2023-07-28T03:52:12;15.40;99.90
8178;DHT22;4130;48.740;9.132;2023-07-28T03:54:39;15.40;99.90
8178;DHT22;4130;48.740;9.132;2023-07-28T03:57:06;15.40;99.90
8178;DHT22;4130;48.740;9.132;2023-07-28T03:59:33;15.50;99.90
8178;DHT22;4130;48.740;9.132;2023-07-28T04:02:01;15.40;99.90
8178;DHT22;4130;48.740;9.132;2023-07-28T04:04:28;15.40;99.90
8178;DHT22;4130;48.740;9.132;2023-07-28T04:06:54;15.50;99.90
8178;DHT22;4130;48.740;9.132;2023-07-28T04:09:21;15.60;99.90
8178;DHT22;4130;48.740;9.132;2023-07-28T04:11:48;15.60;99.90
8178;DHT22;4130;48.740;9.132;2023-07-28T04:14:15;15.60;99.90
8178;DHT22;4130;48.740;9.132;2023-07-28T04:16:41;15.70;99.90
8178;DHT22;4130;48.740;9.132;2023-07-28T04:19:09;15.80;99.90
8178;DHT22;4130;48.740;9.132;2023-07-28T04:21:36;15.90;99.90
8178;DHT22;4130;48.740;9.132;2023-07-28T04:24:05;15.90;99.90
8178;DHT22;4130;48.740;9.132;2023-07-28T04:26:32;15.90;99.90
8178;DHT22;4130;48.740;9.132;2023-07-28T04:28:59;16.00;99.90
8178;DHT22;4130;48.740;9.132;2023-07-28T04:31:26;16.00;99.90
8178;DHT22;4130;48.740;9.132;2023-07-28T04:33:53;16.00;99.90
8178;DHT22;4130;48.740;9.132;2023-07-28T04:36:21;16.10;99.90
8178;DHT22;4130;48.740;9.132;2023-07-28T04:38:47;16.10;99.90
8178;DHT22;4130;48.740;9.132;2023-07-28T04:41:14;16.20;99.90
8178;DHT22;4130;48.740;9.132;2023-07-28T04:43:41;16.10;99.90
8178;DHT22;4130;48.740;9.132;2023-07-28T04:46:07;16.10;99.90
8178;DHT22;4130;48.740;9.132;2023-07-28T04:48:34;16.10;99.90
8178;DHT22;4130;48.740;9.132;2023-07-28T04:51:01;16.20;99.90
8178;DHT22;4130;48.740;9.132;2023-07-28T04:53:29;16.10;99.90
8178;DHT22;4130;48.740;9.132;2023-07-28T04:55:56;16.10;99.90
8178;DHT22;4130;48.740;9.132;2023-07-28T04:58:23;16.10;99.90
8178;DHT22;4130;48.740;9.132;2023-07-28T05:00:49;16.10;99.90
8178;DHT22;4130;48.740;9.132;2023-07-28T05:03:16;16.10;99.90
8178;DHT22;4130;48.740;9.132;2023-07-28T05:05:43;16.10;99.90
8178;DHT22;4130;48.740;9.132;2023-07-28T05:08:10;16.20;99.90
8178;DHT22;4130;48.740;9.132;2023-07-28T05:10:40;16.10;99.90
8178;DHT22;4130;48.740;9.132;2023-07-28T05:13:07;16.10;99.90
8178;DHT22;4130;48.740;9.132;2023-07-28T05:15:33;16.10;99.90
8178;DHT22;4130;48.740;9.132;2023-07-28T05:18:00;16.10;99.90
8178;DHT22;4130;48.740;9.132;2023-07-28T05:20:27;16.00;99.90
8178;DHT22;4130;48.740;9.132;2023-07-28T05:22:53;16.00;99.90
8178;DHT22;4130;48.740;9.132;2023-07-28T05:25:20;16.00;99.90
8178;DHT22;4130;48.740;9.132;2023-07-28T05:27:49;15.90;99.90
8178;DHT22;4130;48.740;9.132;2023-07-28T05:30:15;15.90;99.90
8178;DHT22;4130;48.740;9.132;2023-07-28T05:32:42;15.90;99.90
8178;DHT22;4130;48.740;9.132;2023-07-28T05:35:09;15.90;99.90
8178;DHT22;4130;48.740;9.132;2023-07-28T05:37:36;15.90;99.90
8178;DHT22;4130;48.740;9.132;2023-07-28T05:40:03;15.90;99.90
8178;DHT22;4130;48.740;9.132;2023-07-28T05:42:30;16.00;99.90
8178;DHT22;4130;48.740;9.132;2023-07-28T05:44:59;16.00;99.90
8178;DHT22;4130;48.740;9.132;2023-07-28T05:47:25;16.00;99.90
8178;DHT22;4130;48.740;9.132;2023-07-28T05:49:52;16.00;99.90
8178;DHT22;4130;48.740;9.132;2023-07-28T05:52:20;16.00;99.90
8178;DHT22;4130;48.740;9.132;2023-07-28T05:54:47;16.10;99.90
8178;DHT22;4130;48.740;9.132;2023-07-28T05:57:14;16.10;99.90
8178;DHT22;4130;48.740;9.132;2023-07-28T05:59:41;16.10;99.90
8178;DHT22;4130;48.740;9.132;2023-07-28T06:02:09;16.10;99.90
8178;DHT22;4130;48.740;9.132;2023-07-28T06:04:36;16.20;99.90
8178;DHT22;4130;48.740;9.132;2023-07-28T06:07:03;16.20;99.90
8178;DHT22;4130;48.740;9.132;2023-07-28T06:09:29;16.20;99.90
8178;DHT22;4130;48.740;9.132;2023-07-28T06:11:56;16.20;99.90
8178;DHT22;4130;48.740;9.132;2023-07-28T06:14:23;16.30;99.90
8178;DHT22;4130;48.740;9.132;2023-07-28T06:16:50;16.30;99.90
8178;DHT22;4130;48.740;9.132;2023-07-28T06:19:19;16.30;99.90
8178;DHT22;4130;48.740;9.132;2023-07-28T06:21:49;16.30;99.90
8178;DHT22;4130;48.740;9.132;2023-07-28T06:24:16;16.40;99.90
8178;DHT22;4130;48.740;9.132;2023-07-28T06:26:42;16.50;99.90
8178;DHT22;4130;48.740;9.132;2023-07-28T06:29:09;16.50;99.90
8178;DHT22;4130;48.740;9.132;2023-07-28T06:31:36;16.60;99.90
8178;DHT22;4130;48.740;9.132;2023-07-28T06:34:03;16.70;99.90
8178;DHT22;4130;48.740;9.132;2023-07-28T06:36:31;16.70;99.90
8178;DHT22;4130;48.740;9.132;2023-07-28T06:38:57;16.80;99.90
8178;DHT22;4130;48.740;9.132;2023-07-28T06:41:24;16.80;99.90
8178;DHT22;4130;48.740;9.132;2023-07-28T06:43:51;16.80;99.90
8178;DHT22;4130;48.740;9.132;2023-07-28T06:46:18;16.90;99.90
8178;DHT22;4130;48.740;9.132;2023-07-28T06:48:44;17.00;99.90
8178;DHT22;4130;48.740;9.132;2023-07-28T06:51:11;17.10;99.90
8178;DHT22;4130;48.740;9.132;2023-07-28T06:53:39;17.10;99.90
8178;DHT22;4130;48.740;9.132;2023-07-28T06:56:06;17.20;99.90
8178;DHT22;4130;48.740;9.132;2023-07-28T06:58:32;17.30;99.90
8178;DHT22;4130;48.740;9.132;2023-07-28T07:00:59;17.40;99.90
8178;DHT22;4130;48.740;9.132;2023-07-28T07:03:26;17.50;99.90
8178;DHT22;4130;48.740;9.132;2023-07-28T07:05:53;17.60;99.90
8178;DHT22;4130;48.740;9.132;2023-07-28T07:08:20;17.70;99.90
8178;DHT22;4130;48.740;9.132;2023-07-28T07:10:52;17.80;99.90
8178;DHT22;4130;48.740;9.132;2023-07-28T07:13:19;17.80;99.90
8178;DHT22;4130;48.740;9.132;2023-07-28T07:15:46;17.90;99.90
8178;DHT22;4130;48.740;9.132;2023-07-28T07:18:13;17.90;99.90
8178;DHT22;4130;48.740;9.132;2023-07-28T07:20:40;18.00;99.90
8178;DHT22;4130;48.740;9.132;2023-07-28T07:23:07;18.00;99.90
8178;DHT22;4130;48.740;9.132;2023-07-28T07:25:34;18.00;99.90
8178;DHT22;4130;48.740;9.132;2023-07-28T07:28:02;18.00;99.90
8178;DHT22;4130;48.740;9.132;2023-07-28T07:30:32;18.10;99.90
8178;DHT22;4130;48.740;9.132;2023-07-28T07:32:58;18.20;99.90
8178;DHT22;4130;48.740;9.132;2023-07-28T07:35:26;18.30;99.90
8178;DHT22;4130;48.740;9.132;2023-07-28T07:37:53;18.50;99.90
8178;DHT22;4130;48.740;9.132;2023-07-28T07:40:19;18.60;99.90
8178;DHT22;4130;48.740;9.132;2023-07-28T07:42:47;18.80;99.90
8178;DHT22;4130;48.740;9.132;2023-07-28T07:45:16;19.00;99.90
8178;DHT22;4130;48.740;9.132;2023-07-28T07:47:43;19.20;99.90
8178;DHT22;4130;48.740;9.132;2023-07-28T07:50:10;19.20;99.90
8178;DHT22;4130;48.740;9.132;2023-07-28T07:52:38;19.20;99.90
8178;DHT22;4130;48.740;9.132;2023-07-28T07:55:05;19.30;99.90
8178;DHT22;4130;48.740;9.132;2023-07-28T07:57:32;19.30;99.90
8178;DHT22;4130;48.740;9.132;2023-07-28T07:59:59;19.40;99.90
8178;DHT22;4130;48.740;9.132;2023-07-28T08:02:27;19.40;99.90
8178;DHT22;4130;48.740;9.132;2023-07-28T08:04:54;19.50;99.90
8178;DHT22;4130;48.740;9.132;2023-07-28T08:07:21;19.50;99.90
8178;DHT22;4130;48.740;9.132;2023-07-28T08:09:48;19.60;99.90
8178;DHT22;4130;48.740;9.132;2023-07-28T08:12:16;19.60;99.90
8178;DHT22;4130;48.740;9.132;2023-07-28T08:14:43;19.80;99.90
8178;DHT22;4130;48.740;9.132;2023-07-28T08:17:11;19.80;99.90
8178;DHT22;4130;48.740;9.132;2023-07-28T08:19:39;20.00;99.90
8178;DHT22;4130;48.740;9.132;2023-07-28T08:22:07;20.10;99.90
8178;DHT22;4130;48.740;9.132;2023-07-28T08:24:34;20.20;99.90
8178;DHT22;4130;48.740;9.132;2023-07-28T08:27:01;20.30;99.90
8178;DHT22;4130;48.740;9.132;2023-07-28T08:29:28;20.50;99.90
8178;DHT22;4130;48.740;9.132;2023-07-28T08:31:54;20.70;99.90
8178;DHT22;4130;48.740;9.132;2023-07-28T08:34:22;20.90;99.90
8178;DHT22;4130;48.740;9.132;2023-07-28T08:36:50;21.00;99.90
8178;DHT22;4130;48.740;9.132;2023-07-28T08:39:17;20.90;99.90
8178;DHT22;4130;48.740;9.132;2023-07-28T08:41:44;21.00;99.90
8178;DHT22;4130;48.740;9.132;2023-07-28T08:44:11;20.90;99.90
8178;DHT22;4130;48.740;9.132;2023-07-28T08:46:38;20.70;99.90
8178;DHT22;4130;48.740;9.132;2023-07-28T08:49:04;20.80;99.90
8178;DHT22;4130;48.740;9.132;2023-07-28T08:51:31;20.80;99.90
8178;DHT22;4130;48.740;9.132;2023-07-28T08:53:59;20.70;99.90
8178;DHT22;4130;48.740;9.132;2023-07-28T08:56:26;20.90;99.90
8178;DHT22;4130;48.740;9.132;2023-07-28T08:58:58;20.90;99.90
8178;DHT22;4130;48.740;9.132;2023-07-28T09:01:25;21.00;99.90
8178;DHT22;4130;48.740;9.132;2023-07-28T09:03:52;21.30;99.90
8178;DHT22;4130;48.740;9.132;2023-07-28T09:06:28;21.40;99.90
8178;DHT22;4130;48.740;9.132;2023-07-28T09:08:56;21.50;99.90
8178;DHT22;4130;48.740;9.132;2023-07-28T09:11:25;21.30;99.90
8178;DHT22;4130;48.740;9.132;2023-07-28T09:13:54;21.10;99.90
8178;DHT22;4130;48.740;9.132;2023-07-28T09:16:21;21.00;99.90
8178;DHT22;4130;48.740;9.132;2023-07-28T09:18:50;20.90;99.90
8178;DHT22;4130;48.740;9.132;2023-07-28T09:21:17;20.70;99.90
8178;DHT22;4130;48.740;9.132;2023-07-28T09:23:46;20.60;99.90
8178;DHT22;4130;48.740;9.132;2023-07-28T09:26:13;20.50;99.90
8178;DHT22;4130;48.740;9.132;2023-07-28T09:28:42;20.50;99.90
8178;DHT22;4130;48.740;9.132;2023-07-28T09:31:09;20.60;99.90
8178;DHT22;4130;48.740;9.132;2023-07-28T09:33:37;20.60;99.90
8178;DHT22;4130;48.740;9.132;2023-07-28T09:36:09;20.80;99.90
8178;DHT22;4130;48.740;9.132;2023-07-28T09:38:38;21.00;99.90
8178;DHT22;4130;48.740;9.132;2023-07-28T09:41:07;21.10;99.90
8178;DHT22;4130;48.740;9.132;2023-07-28T09:43:36;21.50;99.90
8178;DHT22;4130;48.740;9.132;2023-07-28T09:46:07;21.90;99.90
8178;DHT22;4130;48.740;9.132;2023-07-28T09:48:37;22.60;99.90
8178;DHT22;4130;48.740;9.132;2023-07-28T09:51:08;22.70;99.90
8178;DHT22;4130;48.740;9.132;2023-07-28T09:53:43;22.80;99.90
8178;DHT22;4130;48.740;9.132;2023-07-28T09:56:11;22.70;99.90
8178;DHT22;4130;48.740;9.132;2023-07-28T09:58:41;22.90;99.90
8178;DHT22;4130;48.740;9.132;2023-07-28T10:01:11;23.20;99.90
8178;DHT22;4130;48.740;9.132;2023-07-28T10:03:39;23.20;99.90
8178;DHT22;4130;48.740;9.132;2023-07-28T10:06:06;23.20;99.90
8178;DHT22;4130;48.740;9.132;2023-07-28T10:08:33;23.20;99.90
8178;DHT22;4130;48.740;9.132;2023-07-28T10:11:01;23.10;99.90
8178;DHT22;4130;48.740;9.132;2023-07-28T10:13:39;23.00;99.90
8178;DHT22;4130;48.740;9.132;2023-07-28T10:16:06;22.70;99.90
8178;DHT22;4130;48.740;9.132;2023-07-28T10:18:36;22.50;99.90
8178;DHT22;4130;48.740;9.132;2023-07-28T10:21:05;22.40;99.90
8178;DHT22;4130;48.740;9.132;2023-07-28T10:23:33;22.10;99.90
8178;DHT22;4130;48.740;9.132;2023-07-28T10:26:01;22.00;99.90
8178;DHT22;4130;48.740;9.132;2023-07-28T10:28:32;22.00;99.90
8178;DHT22;4130;48.740;9.132;2023-07-28T10:31:06;21.70;99.90
8178;DHT22;4130;48.740;9.132;2023-07-28T10:33:34;21.70;99.90
8178;DHT22;4130;48.740;9.132;2023-07-28T10:36:13;21.80;99.90
8178;DHT22;4130;48.740;9.132;2023-07-28T10:38:41;21.70;99.90
8178;DHT22;4130;48.740;9.132;2023-07-28T10:41:12;21.70;99.90
8178;DHT22;4130;48.740;9.132;2023-07-28T10:43:39;21.60;99.90
8178;DHT22;4130;48.740;9.132;2023-07-28T10:46:09;21.60;99.90
8178;DHT22;4130;48.740;9.132;2023-07-28T10:48:36;21.70;99.90
8178;DHT22;4130;48.740;9.132;2023-07-28T10:51:04;21.90;99.90
8178;DHT22;4130;48.740;9.132;2023-07-28T10:53:33;22.10;99.90
8178;DHT22;4130;48.740;9.132;2023-07-28T10:56:01;22.40;99.90
8178;DHT22;4130;48.740;9.132;2023-07-28T10:58:28;22.80;99.90
8178;DHT22;4130;48.740;9.132;2023-07-28T11:00:55;22.80;99.90
8178;DHT22;4130;48.740;9.132;2023-07-28T11:03:22;23.00;99.90
8178;DHT22;4130;48.740;9.132;2023-07-28T11:05:49;23.30;99.90
8178;DHT22;4130;48.740;9.132;2023-07-28T11:08:17;23.60;99.90
8178;DHT22;4130;48.740;9.132;2023-07-28T11:10:45;23.70;99.90
8178;DHT22;4130;48.740;9.132;2023-07-28T11:13:12;24.00;99.90
8178;DHT22;4130;48.740;9.132;2023-07-28T11:15:39;24.30;99.90
8178;DHT22;4130;48.740;9.132;2023-07-28T11:18:06;24.50;99.90
8178;DHT22;4130;48.740;9.132;2023-07-28T11:20:35;24.50;99.90
8178;DHT22;4130;48.740;9.132;2023-07-28T11:23:03;24.60;99.90
8178;DHT22;4130;48.740;9.132;2023-07-28T11:25:32;24.70;99.90
8178;DHT22;4130;48.740;9.132;2023-07-28T11:28:02;24.70;99.90
8178;DHT22;4130;48.740;9.132;2023-07-28T11:30:31;24.70;99.90
8178;DHT22;4130;48.740;9.132;2023-07-28T11:32:58;24.60;99.90
8178;DHT22;4130;48.740;9.132;2023-07-28T11:35:25;24.40;99.90
8178;DHT22;4130;48.740;9.132;2023-07-28T11:37:53;24.30;99.90
8178;DHT22;4130;48.740;9.132;2023-07-28T11:40:21;24.30;99.90
8178;DHT22;4130;48.740;9.132;2023-07-28T11:42:50;24.10;99.90
8178;DHT22;4130;48.740;9.132;2023-07-28T11:45:20;24.00;99.90
8178;DHT22;4130;48.740;9.132;2023-07-28T11:47:58;23.90;99.90
8178;DHT22;4130;48.740;9.132;2023-07-28T11:50:28;23.90;99.90
8178;DHT22;4130;48.740;9.132;2023-07-28T11:52:57;23.60;99.90
8178;DHT22;4130;48.740;9.132;2023-07-28T11:55:24;23.40;99.90
8178;DHT22;4130;48.740;9.132;2023-07-28T11:57:51;23.10;99.90
8178;DHT22;4130;48.740;9.132;2023-07-28T12:00:28;22.80;99.90
8178;DHT22;4130;48.740;9.132;2023-07-28T12:03:06;22.10;99.90
8178;DHT22;4130;48.740;9.132;2023-07-28T12:05:35;21.50;99.90
8178;DHT22;4130;48.740;9.132;2023-07-28T12:08:02;20.90;99.90
8178;DHT22;4130;48.740;9.132;2023-07-28T12:10:30;20.70;99.90
8178;DHT22;4130;48.740;9.132;2023-07-28T12:12:58;20.60;99.90
8178;DHT22;4130;48.740;9.132;2023-07-28T12:15:31;20.50;99.90
8178;DHT22;4130;48.740;9.132;2023-07-28T12:18:16;20.60;99.90
8178;DHT22;4130;48.740;9.132;2023-07-28T12:20:46;20.60;99.90
8178;DHT22;4130;48.740;9.132;2023-07-28T12:23:14;20.60;99.90
8178;DHT22;4130;48.740;9.132;2023-07-28T12:25:41;20.70;99.90
8178;DHT22;4130;48.740;9.132;2023-07-28T12:28:09;21.00;99.90
8178;DHT22;4130;48.740;9.132;2023-07-28T12:30:37;21.20;99.90
8178;DHT22;4130;48.740;9.132;2023-07-28T12:33:04;21.40;99.90
8178;DHT22;4130;48.740;9.132;2023-07-28T12:35:32;21.60;99.90
8178;DHT22;4130;48.740;9.132;2023-07-28T12:38:00;21.70;99.90
8178;DHT22;4130;48.740;9.132;2023-07-28T12:40:30;21.90;99.90
8178;DHT22;4130;48.740;9.132;2023-07-28T12:42:58;22.40;99.90
8178;DHT22;4130;48.740;9.132;2023-07-28T12:45:25;22.70;99.90
8178;DHT22;4130;48.740;9.132;2023-07-28T12:47:53;23.20;99.90
8178;DHT22;4130;48.740;9.132;2023-07-28T12:50:21;23.40;99.90
8178;DHT22;4130;48.740;9.132;2023-07-28T12:52:48;23.70;99.90
8178;DHT22;4130;48.740;9.132;2023-07-28T12:55:15;23.70;99.90
8178;DHT22;4130;48.740;9.132;2023-07-28T12:57:42;23.70;99.90
8178;DHT22;4130;48.740;9.132;2023-07-28T13:00:10;23.50;99.90
8178;DHT22;4130;48.740;9.132;2023-07-28T13:02:39;23.40;99.90
8178;DHT22;4130;48.740;9.132;2023-07-28T13:05:08;23.40;99.90
8178;DHT22;4130;48.740;9.132;2023-07-28T13:07:36;23.30;99.90
8178;DHT22;4130;48.740;9.132;2023-07-28T13:10:04;23.10;99.90
8178;DHT22;4130;48.740;9.132;2023-07-28T13:12:31;23.00;99.90
8178;DHT22;4130;48.740;9.132;2023-07-28T13:14:57;22.80;99.90
8178;DHT22;4130;48.740;9.132;2023-07-28T13:17:24;22.80;99.90
8178;DHT22;4130;48.740;9.132;2023-07-28T13:19:51;22.70;99.90
8178;DHT22;4130;48.740;9.132;2023-07-28T13:22:19;22.40;99.90
8178;DHT22;4130;48.740;9.132;2023-07-28T13:24:46;22.00;99.90
8178;DHT22;4130;48.740;9.132;2023-07-28T13:27:12;21.60;99.90
8178;DHT22;4130;48.740;9.132;2023-07-28T13:29:39;21.30;99.90
8178;DHT22;4130;48.740;9.132;2023-07-28T13:32:16;21.00;99.90
8178;DHT22;4130;48.740;9.132;2023-07-28T13:34:43;20.70;99.90
8178;DHT22;4130;48.740;9.132;2023-07-28T13:37:09;20.40;99.90
8178;DHT22;4130;48.740;9.132;2023-07-28T13:39:37;20.20;99.90
8178;DHT22;4130;48.740;9.132;2023-07-28T13:42:04;20.10;99.90
8178;DHT22;4130;48.740;9.132;2023-07-28T13:44:31;20.00;99.90
8178;DHT22;4130;48.740;9.132;2023-07-28T13:46:58;19.90;99.90
8178;DHT22;4130;48.740;9.132;2023-07-28T13:49:25;19.80;99.90
8178;DHT22;4130;48.740;9.132;2023-07-28T13:51:51;19.70;99.90
8178;DHT22;4130;48.740;9.132;2023-07-28T13:54:18;19.50;99.90
8178;DHT22;4130;48.740;9.132;2023-07-28T13:56:46;19.40;99.90
8178;DHT22;4130;48.740;9.132;2023-07-28T13:59:13;19.20;99.90
8178;DHT22;4130;48.740;9.132;2023-07-28T14:01:40;19.10;99.90
8178;DHT22;4130;48.740;9.132;2023-07-28T14:04:07;19.00;99.90
8178;DHT22;4130;48.740;9.132;2023-07-28T14:06:33;18.90;99.90
8178;DHT22;4130;48.740;9.132;2023-07-28T14:09:00;18.90;99.90
8178;DHT22;4130;48.740;9.132;2023-07-28T14:11:27;18.80;99.90
8178;DHT22;4130;48.740;9.132;2023-07-28T14:13:55;18.80;99.90
8178;DHT22;4130;48.740;9.132;2023-07-28T14:16:22;18.80;99.90
8178;DHT22;4130;48.740;9.132;2023-07-28T14:18:48;18.80;99.90
8178;DHT22;4130;48.740;9.132;2023-07-28T14:21:16;18.80;99.90
8178;DHT22;4130;48.740;9.132;2023-07-28T14:23:42;18.80;99.90
8178;DHT22;4130;48.740;9.132;2023-07-28T14:26:09;18.80;99.90
8178;DHT22;4130;48.740;9.132;2023-07-28T14:28:36;18.90;99.90
8178;DHT22;4130;48.740;9.132;2023-07-28T14:31:04;18.90;99.90
8178;DHT22;4130;48.740;9.132;2023-07-28T14:33:31;18.90;99.90
8178;DHT22;4130;48.740;9.132;2023-07-28T14:35:58;18.90;99.90
8178;DHT22;4130;48.740;9.132;2023-07-28T14:38:25;18.90;99.90
8178;DHT22;4130;48.740;9.132;2023-07-28T14:40:52;18.90;99.90
8178;DHT22;4130;48.740;9.132;2023-07-28T14:43:19;18.80;99.90
8178;DHT22;4130;48.740;9.132;2023-07-28T14:45:45;18.80;99.90
8178;DHT22;4130;48.740;9.132;2023-07-28T14:48:14;18.80;99.90
8178;DHT22;4130;48.740;9.132;2023-07-28T14:50:40;18.80;99.90
8178;DHT22;4130;48.740;9.132;2023-07-28T14:53:29;18.90;99.90
8178;DHT22;4130;48.740;9.132;2023-07-28T14:55:56;18.90;99.90
8178;DHT22;4130;48.740;9.132;2023-07-28T14:58:23;19.00;99.90
8178;DHT22;4130;48.740;9.132;2023-07-28T15:00:50;19.00;99.90
8178;DHT22;4130;48.740;9.132;2023-07-28T15:03:18;19.00;99.90
8178;DHT22;4130;48.740;9.132;2023-07-28T15:05:45;19.10;99.90
8178;DHT22;4130;48.740;9.132;2023-07-28T15:08:12;19.10;99.90
8178;DHT22;4130;48.740;9.132;2023-07-28T15:10:39;19.20;99.90
8178;DHT22;4130;48.740;9.132;2023-07-28T15:13:06;19.30;99.90
8178;DHT22;4130;48.740;9.132;2023-07-28T15:15:32;19.40;99.90
8178;DHT22;4130;48.740;9.132;2023-07-28T15:17:59;19.40;99.90
8178;DHT22;4130;48.740;9.132;2023-07-28T15:20:27;19.50;99.90
8178;DHT22;4130;48.740;9.132;2023-07-28T15:22:54;19.70;99.90
8178;DHT22;4130;48.740;9.132;2023-07-28T15:25:21;19.80;99.90
8178;DHT22;4130;48.740;9.132;2023-07-28T15:27:48;19.70;99.90
8178;DHT22;4130;48.740;9.132;2023-07-28T15:30:14;19.40;99.90
8178;DHT22;4130;48.740;9.132;2023-07-28T15:32:41;19.40;99.90
8178;DHT22;4130;48.740;9.132;2023-07-28T15:35:08;19.40;99.90
8178;DHT22;4130;48.740;9.132;2023-07-28T15:37:37;19.40;99.90
8178;DHT22;4130;48.740;9.132;2023-07-28T15:40:05;19.40;99.90
8178;DHT22;4130;48.740;9.132;2023-07-28T15:42:32;19.40;99.90
8178;DHT22;4130;48.740;9.132;2023-07-28T15:44:58;19.30;99.90
8178;DHT22;4130;48.740;9.132;2023-07-28T15:47:25;19.30;99.90
8178;DHT22;4130;48.740;9.132;2023-07-28T15:49:52;19.30;99.90
8178;DHT22;4130;48.740;9.132;2023-07-28T15:52:19;19.30;99.90
8178;DHT22;4130;48.740;9.132;2023-07-28T15:54:47;19.40;99.90
8178;DHT22;4130;48.740;9.132;2023-07-28T15:57:14;19.50;99.90
8178;DHT22;4130;48.740;9.132;2023-07-28T15:59:41;19.50;99.90
8178;DHT22;4130;48.740;9.132;2023-07-28T16:02:08;19.50;99.90
8178;DHT22;4130;48.740;9.132;2023-07-28T16:04:34;19.60;99.90